createdAt,value
2023-05-16T00:01:53.323Z,100953.48
2023-05-16T00:04:20.641Z,100952.33
2023-05-16T00:06:47.665Z,100952.46
2023-05-16T00:09:14.574Z,100946.97
2023-05-16T00:11:41.560Z,100950.29
2023-05-16T00:14:08.604Z,100952.03
2023-05-16T00:16:37.502Z,100950.84
2023-05-16T00:19:05.064Z,100951.95
2023-05-16T00:21:32.153Z,100952.05
2023-05-16T00:23:59.105Z,100952.11
2023-05-16T00:26:26.554Z,100952.34
2023-05-16T00:28:53.579Z,100956.61
2023-05-16T00:31:20.882Z,100960.18
2023-05-16T00:33:48.213Z,100959.20
2023-05-16T00:36:15.270Z,100960.77
2023-05-16T00:38:42.267Z,100964.27
2023-05-16T00:41:09.258Z,100965.07
2023-05-16T00:43:36.885Z,100964.11
2023-05-16T00:46:03.894Z,100965.22
2023-05-16T00:48:30.962Z,100963.95
2023-05-16T00:50:58.063Z,100958.63
2023-05-16T00:53:25.117Z,100958.91
2023-05-16T00:55:52.120Z,100958.28
2023-05-16T00:58:19.157Z,100958.80
2023-05-16T01:00:48.807Z,100958.16
2023-05-16T01:03:16.180Z,100960.08
2023-05-16T01:05:43.460Z,100960.64
2023-05-16T01:08:10.448Z,100963.52
2023-05-16T01:10:40.692Z,100963.00
2023-05-16T01:13:24.995Z,100964.50
2023-05-16T01:16:01.629Z,100965.37
2023-05-16T01:18:28.851Z,100963.73
2023-05-16T01:20:59.897Z,100966.48
2023-05-16T01:23:31.265Z,100964.14
2023-05-16T01:26:06.858Z,100963.23
2023-05-16T01:28:33.933Z,100961.89
2023-05-16T01:31:01.288Z,100959.84
2023-05-16T01:33:29.448Z,100957.80
2023-05-16T01:36:00.041Z,100958.16
2023-05-16T01:38:27.573Z,100958.67
2023-05-16T01:40:57.750Z,100962.40
2023-05-16T01:43:35.169Z,100965.30
2023-05-16T01:46:09.562Z,100961.88
2023-05-16T01:48:40.465Z,100962.80
2023-05-16T01:51:07.502Z,100961.80
2023-05-16T01:53:39.379Z,100961.21
2023-05-16T01:56:09.224Z,100959.41
2023-05-16T01:58:36.973Z,100958.66
2023-05-16T02:01:04.757Z,100952.93
2023-05-16T02:03:32.411Z,100952.25
2023-05-16T02:05:59.648Z,100954.48
2023-05-16T02:08:27.719Z,100956.41
2023-05-16T02:10:54.853Z,100957.25
2023-05-16T02:13:21.933Z,100959.87
2023-05-16T02:15:49.175Z,100961.81
2023-05-16T02:18:17.024Z,100960.34
2023-05-16T02:20:44.125Z,100961.48
2023-05-16T02:23:11.215Z,100961.23
2023-05-16T02:25:38.353Z,100959.11
2023-05-16T02:28:05.737Z,100959.38
2023-05-16T02:30:33.233Z,100958.33
2023-05-16T02:33:00.383Z,100960.95
2023-05-16T02:35:27.835Z,100958.61
2023-05-16T02:37:56.107Z,100957.06
2023-05-16T02:40:24.978Z,100961.65
2023-05-16T02:42:52.216Z,100958.30
2023-05-16T02:45:19.288Z,100960.45
2023-05-16T02:47:46.519Z,100965.76
2023-05-16T02:50:13.931Z,100963.83
2023-05-16T02:52:41.310Z,100968.36
2023-05-16T02:55:21.645Z,100966.82
2023-05-16T02:57:51.269Z,100967.45
2023-05-16T03:00:18.978Z,100968.77
2023-05-16T03:02:47.383Z,100973.34
2023-05-16T03:05:14.584Z,100972.45
2023-05-16T03:07:41.681Z,100972.04
2023-05-16T03:10:09.164Z,100974.99
2023-05-16T03:12:36.326Z,100975.77
2023-05-16T03:15:04.405Z,100971.39
2023-05-16T03:17:31.976Z,100973.94
2023-05-16T03:19:59.128Z,100969.17
2023-05-16T03:22:26.253Z,100969.98
2023-05-16T03:24:53.355Z,100970.60
2023-05-16T03:27:20.610Z,100974.02
2023-05-16T03:29:50.098Z,100971.08
2023-05-16T03:32:17.290Z,100969.57
2023-05-16T03:34:44.460Z,100971.22
2023-05-16T03:37:11.806Z,100974.75
2023-05-16T03:39:38.897Z,100976.68
2023-05-16T03:42:06.087Z,100979.83
2023-05-16T03:44:33.829Z,100979.20
2023-05-16T03:47:00.896Z,100982.94
2023-05-16T03:49:30.947Z,100979.70
2023-05-16T03:51:58.263Z,100973.12
2023-05-16T03:54:25.314Z,100973.15
2023-05-16T03:56:52.420Z,100970.94
2023-05-16T03:59:19.544Z,100970.36
2023-05-16T04:01:46.738Z,100967.31
2023-05-16T04:04:14.462Z,100967.20
2023-05-16T04:06:41.542Z,100966.54
2023-05-16T04:09:08.692Z,100965.91
2023-05-16T04:11:36.633Z,100964.77
2023-05-16T04:14:03.763Z,100969.19
2023-05-16T04:16:30.938Z,100968.25
2023-05-16T04:18:58.109Z,100968.46
2023-05-16T04:21:25.226Z,100964.55
2023-05-16T04:23:52.327Z,100964.69
2023-05-16T04:26:22.144Z,100962.84
2023-05-16T04:28:49.244Z,100963.32
2023-05-16T04:31:16.795Z,100969.69
2023-05-16T04:33:44.031Z,100970.25
2023-05-16T04:36:11.247Z,100966.94
2023-05-16T04:38:38.308Z,100969.73
2023-05-16T04:41:05.376Z,100972.26
2023-05-16T04:43:32.598Z,100972.30
2023-05-16T04:45:59.751Z,100971.02
2023-05-16T04:48:26.942Z,100968.52
2023-05-16T04:50:54.107Z,100965.10
2023-05-16T04:53:21.772Z,100968.65
2023-05-16T04:55:48.886Z,100968.66
2023-05-16T04:58:16.185Z,100971.39
2023-05-16T05:00:43.390Z,100969.48
2023-05-16T05:03:10.621Z,100969.21
2023-05-16T05:05:37.964Z,100969.45
2023-05-16T05:08:05.289Z,100968.59
2023-05-16T05:10:32.468Z,100970.82
2023-05-16T05:12:59.526Z,100971.20
2023-05-16T05:15:27.222Z,100972.12
2023-05-16T05:17:54.618Z,100973.09
2023-05-16T05:20:21.979Z,100978.37
2023-05-16T05:22:49.201Z,100975.77
2023-05-16T05:25:17.235Z,100983.01
2023-05-16T05:27:44.370Z,100980.96
2023-05-16T05:30:11.734Z,100982.92
2023-05-16T05:32:38.917Z,100978.56
2023-05-16T05:35:06.784Z,100980.62
2023-05-16T05:37:33.992Z,100977.96
2023-05-16T05:40:01.822Z,100977.23
2023-05-16T05:42:29.234Z,100976.03
2023-05-16T05:44:56.683Z,100979.52
2023-05-16T05:47:24.267Z,100978.33
2023-05-16T05:49:51.399Z,100977.63
2023-05-16T05:52:18.480Z,100975.76
2023-05-16T05:54:45.615Z,100978.59
2023-05-16T05:57:12.828Z,100981.00
2023-05-16T05:59:40.006Z,100977.55
2023-05-16T06:02:07.974Z,100983.66
2023-05-16T06:04:35.336Z,100980.09
2023-05-16T06:07:02.490Z,100983.50
2023-05-16T06:09:29.617Z,100985.34
2023-05-16T06:11:56.859Z,100985.38
2023-05-16T06:14:23.907Z,100985.36
2023-05-16T06:16:51.084Z,100985.89
2023-05-16T06:19:19.392Z,100985.81
2023-05-16T06:21:47.472Z,100986.77
2023-05-16T06:24:15.295Z,100993.05
2023-05-16T06:26:42.892Z,100992.08
2023-05-16T06:29:10.039Z,100994.05
2023-05-16T06:31:37.165Z,100992.31
2023-05-16T06:34:04.446Z,100987.99
2023-05-16T06:36:31.638Z,100990.27
2023-05-16T06:38:58.902Z,100988.23
2023-05-16T06:41:26.887Z,100986.88
2023-05-16T06:43:54.062Z,100985.08
2023-05-16T06:46:21.359Z,100985.86
2023-05-16T06:48:48.988Z,100980.63
2023-05-16T06:51:16.538Z,100980.02
2023-05-16T06:53:43.921Z,100980.02
2023-05-16T06:56:11.161Z,100983.38
2023-05-16T06:58:40.518Z,100982.81
2023-05-16T07:01:07.756Z,100982.17
2023-05-16T07:03:35.197Z,100983.42
2023-05-16T07:06:02.581Z,100986.02
2023-05-16T07:08:29.845Z,100988.27
2023-05-16T07:10:57.065Z,100991.80
2023-05-16T07:13:24.251Z,100992.72
2023-05-16T07:15:51.391Z,100995.91
2023-05-16T07:18:18.819Z,101000.02
2023-05-16T07:20:46.342Z,101000.09
2023-05-16T07:23:13.581Z,100999.02
2023-05-16T07:25:40.776Z,100996.17
2023-05-16T07:28:07.860Z,100997.88
2023-05-16T07:30:35.074Z,100998.06
2023-05-16T07:33:02.345Z,100998.49
2023-05-16T07:35:29.755Z,101000.98
2023-05-16T07:37:57.082Z,101000.70
2023-05-16T07:40:28.545Z,101001.13
2023-05-16T07:42:56.038Z,100996.69
2023-05-16T07:45:23.132Z,100998.38
2023-05-16T07:47:50.291Z,100997.88
2023-05-16T07:50:17.377Z,100996.52
2023-05-16T07:52:44.386Z,100996.58
2023-05-16T07:55:11.577Z,100994.42
2023-05-16T07:57:38.592Z,100992.45
2023-05-16T08:00:06.074Z,100993.24
2023-05-16T08:02:39.181Z,100994.16
2023-05-16T08:05:06.893Z,100990.79
2023-05-16T08:07:34.146Z,100996.33
2023-05-16T08:10:01.214Z,100995.96
2023-05-16T08:12:28.258Z,100995.44
2023-05-16T08:14:57.407Z,100998.07
2023-05-16T08:17:24.584Z,100993.34
2023-05-16T08:19:51.686Z,100994.19
2023-05-16T08:22:18.910Z,100992.41
2023-05-16T08:24:46.234Z,100993.20
2023-05-16T08:27:13.673Z,100987.33
2023-05-16T08:29:40.913Z,100985.63
2023-05-16T08:32:08.905Z,100990.80
2023-05-16T08:34:36.964Z,100988.42
2023-05-16T08:37:03.963Z,100988.02
2023-05-16T08:39:31.060Z,100986.81
2023-05-16T08:41:59.176Z,100986.10
2023-05-16T08:44:27.415Z,100987.52
2023-05-16T08:46:55.373Z,100985.82
2023-05-16T08:49:22.596Z,100977.50
2023-05-16T08:51:52.144Z,100974.40
2023-05-16T08:54:19.358Z,100974.34
2023-05-16T08:56:46.699Z,100967.85
2023-05-16T08:59:13.904Z,100969.98
2023-05-16T09:01:41.598Z,100969.91
2023-05-16T09:04:09.701Z,100969.04
2023-05-16T09:06:37.408Z,100963.54
2023-05-16T09:09:07.970Z,100963.80
2023-05-16T09:11:36.936Z,100957.63
2023-05-16T09:14:05.898Z,100955.27
2023-05-16T09:16:32.974Z,100954.58
2023-05-16T09:19:00.757Z,100953.02
2023-05-16T09:21:29.071Z,100954.21
2023-05-16T09:23:56.512Z,100949.73
2023-05-16T09:26:23.736Z,100947.31
2023-05-16T09:28:53.712Z,100946.36
2023-05-16T09:31:22.249Z,100947.14
2023-05-16T09:33:51.001Z,100944.09
2023-05-16T09:36:18.220Z,100942.83
2023-05-16T09:38:45.865Z,100943.64
2023-05-16T09:41:13.128Z,100943.72
2023-05-16T09:43:42.004Z,100939.42
2023-05-16T09:46:09.585Z,100943.99
2023-05-16T09:48:36.815Z,100936.67
2023-05-16T09:51:06.564Z,100941.45
2023-05-16T09:53:34.246Z,100940.73
2023-05-16T09:56:02.528Z,100940.64
2023-05-16T09:58:33.062Z,100935.77
2023-05-16T10:01:00.231Z,100935.27
2023-05-16T10:03:27.428Z,100933.06
2023-05-16T10:05:54.999Z,100930.56
2023-05-16T10:08:22.772Z,100932.14
2023-05-16T10:10:53.770Z,100928.69
2023-05-16T10:13:22.296Z,100932.27
2023-05-16T10:15:49.697Z,100932.11
2023-05-16T10:18:18.624Z,100930.73
2023-05-16T10:20:49.427Z,100926.48
2023-05-16T10:23:17.375Z,100926.04
2023-05-16T10:25:44.843Z,100925.25
2023-05-16T10:28:12.647Z,100922.14
2023-05-16T10:30:44.465Z,100921.52
2023-05-16T10:33:12.560Z,100921.14
2023-05-16T10:35:40.037Z,100919.48
2023-05-16T10:38:08.282Z,100914.55
2023-05-16T10:40:36.190Z,100921.15
2023-05-16T10:43:04.265Z,100926.69
2023-05-16T10:45:32.046Z,100923.71
2023-05-16T10:48:00.233Z,100926.17
2023-05-16T10:50:44.039Z,100933.22
2023-05-16T10:53:31.761Z,100932.17
2023-05-16T10:55:59.024Z,100932.69
2023-05-16T10:58:36.441Z,100931.99
2023-05-16T11:01:15.900Z,100930.98
2023-05-16T11:04:04.674Z,100933.13
2023-05-16T11:06:35.457Z,100929.59
2023-05-16T11:09:05.958Z,100928.11
2023-05-16T11:11:52.110Z,100932.30
2023-05-16T11:14:23.551Z,100930.09
2023-05-16T11:16:55.655Z,100932.75
2023-05-16T11:19:31.322Z,100933.90
2023-05-16T11:22:08.411Z,100938.13
2023-05-16T11:24:36.459Z,100936.29
2023-05-16T11:27:07.316Z,100941.94
2023-05-16T11:29:35.242Z,100944.95
2023-05-16T11:32:03.239Z,100946.77
2023-05-16T11:34:32.072Z,100948.09
2023-05-16T11:37:00.551Z,100948.50
2023-05-16T11:39:28.027Z,100949.20
2023-05-16T11:41:57.585Z,100946.13
2023-05-16T11:44:24.717Z,100948.42
2023-05-16T11:46:54.783Z,100951.54
2023-05-16T11:49:21.973Z,100957.87
2023-05-16T11:51:49.986Z,100959.98
2023-05-16T11:54:17.248Z,100956.66
2023-05-16T11:56:44.425Z,100958.66
2023-05-16T11:59:11.649Z,100966.03
2023-05-16T12:01:39.273Z,100967.84
2023-05-16T12:04:10.942Z,100971.23
2023-05-16T12:06:43.474Z,100968.00
2023-05-16T12:09:17.562Z,100966.62
2023-05-16T12:11:46.155Z,100970.21
2023-05-16T12:14:13.643Z,100972.32
2023-05-16T12:16:42.634Z,100969.13
2023-05-16T12:19:09.913Z,100973.58
2023-05-16T12:21:38.198Z,100979.22
2023-05-16T12:24:05.586Z,100981.90
2023-05-16T12:26:33.863Z,100979.50
2023-05-16T12:29:03.626Z,100980.30
2023-05-16T12:31:32.539Z,100984.71
2023-05-16T12:34:00.054Z,100982.33
2023-05-16T12:36:27.557Z,100977.94
2023-05-16T12:38:57.792Z,100978.33
2023-05-16T12:41:24.879Z,100975.61
2023-05-16T12:43:52.083Z,100974.04
2023-05-16T12:46:20.333Z,100975.60
2023-05-16T12:48:48.598Z,100977.70
2023-05-16T12:51:19.430Z,100972.67
2023-05-16T12:54:01.279Z,100969.81
2023-05-16T12:56:39.181Z,100962.73
2023-05-16T12:59:08.764Z,100963.46
2023-05-16T13:01:36.316Z,100959.92
2023-05-16T13:04:05.152Z,100964.52
2023-05-16T13:06:44.942Z,100968.41
2023-05-16T13:09:19.547Z,100973.81
2023-05-16T13:11:47.101Z,100973.95
2023-05-16T13:14:14.273Z,100963.77
2023-05-16T13:16:41.653Z,100968.04
2023-05-16T13:19:09.657Z,100957.61
2023-05-16T13:21:36.980Z,100957.62
2023-05-16T13:24:04.325Z,100956.16
2023-05-16T13:26:31.477Z,100962.06
2023-05-16T13:28:58.609Z,100967.86
2023-05-16T13:31:25.817Z,100966.38
2023-05-16T13:33:53.322Z,100969.34
2023-05-16T13:36:20.575Z,100967.11
2023-05-16T13:38:48.522Z,100965.57
2023-05-16T13:41:15.923Z,100964.02
2023-05-16T13:43:43.059Z,100956.95
2023-05-16T13:46:10.220Z,100953.22
2023-05-16T13:48:37.337Z,100951.99
2023-05-16T13:51:04.460Z,100955.80
2023-05-16T13:53:31.612Z,100958.30
2023-05-16T13:55:58.810Z,100957.66
2023-05-16T13:58:27.411Z,100961.77
2023-05-16T14:00:54.570Z,100963.61
2023-05-16T14:03:23.579Z,100967.44
2023-05-16T14:05:52.100Z,100966.27
2023-05-16T14:08:19.240Z,100968.09
2023-05-16T14:10:46.348Z,100971.12
2023-05-16T14:13:13.436Z,100964.38
2023-05-16T14:15:40.847Z,100964.41
2023-05-16T14:18:08.482Z,100962.08
2023-05-16T14:20:36.031Z,100957.90
2023-05-16T14:23:03.234Z,100957.43
2023-05-16T14:25:30.592Z,100958.27
2023-05-16T14:27:58.220Z,100959.00
2023-05-16T14:30:25.562Z,100950.84
2023-05-16T14:32:52.971Z,100950.55
2023-05-16T14:35:20.260Z,100946.87
2023-05-16T14:37:48.337Z,100941.61
2023-05-16T14:40:15.950Z,100942.73
2023-05-16T14:42:43.346Z,100942.91
2023-05-16T14:45:11.087Z,100941.61
2023-05-16T14:47:38.567Z,100938.59
2023-05-16T14:50:07.426Z,100938.01
2023-05-16T14:52:34.543Z,100940.86
2023-05-16T14:55:01.696Z,100942.30
2023-05-16T14:57:28.922Z,100938.45
2023-05-16T14:59:56.041Z,100944.27
2023-05-16T15:02:23.186Z,100941.02
2023-05-16T15:04:50.511Z,100941.38
2023-05-16T15:07:17.669Z,100942.58
2023-05-16T15:09:44.853Z,100941.83
2023-05-16T15:12:12.017Z,100941.08
2023-05-16T15:14:39.179Z,100939.58
2023-05-16T15:17:08.758Z,100941.18
2023-05-16T15:19:36.327Z,100937.78
2023-05-16T15:22:03.509Z,100937.14
2023-05-16T15:24:30.737Z,100940.66
2023-05-16T15:26:58.274Z,100936.46
2023-05-16T15:29:26.432Z,100933.98
2023-05-16T15:31:53.604Z,100931.16
2023-05-16T15:34:20.993Z,100928.72
2023-05-16T15:36:48.294Z,100930.38
2023-05-16T15:39:16.379Z,100931.63
2023-05-16T15:41:56.864Z,100934.60
2023-05-16T15:44:30.965Z,100931.34
2023-05-16T15:46:58.109Z,100939.21
2023-05-16T15:49:25.293Z,100940.38
2023-05-16T15:51:52.906Z,100944.55
2023-05-16T15:54:20.122Z,100952.04
2023-05-16T15:56:47.287Z,100952.51
2023-05-16T15:59:14.591Z,100953.16
2023-05-16T16:01:41.791Z,100954.88
2023-05-16T16:04:09.151Z,100954.80
2023-05-16T16:06:36.521Z,100950.35
2023-05-16T16:09:04.371Z,100947.58
2023-05-16T16:11:31.543Z,100947.30
2023-05-16T16:13:58.720Z,100947.25
2023-05-16T16:16:26.271Z,100948.24
2023-05-16T16:18:53.836Z,100949.73
2023-05-16T16:21:21.082Z,100951.21
2023-05-16T16:23:48.154Z,100957.14
2023-05-16T16:26:15.685Z,100959.20
2023-05-16T16:28:43.133Z,100958.80
2023-05-16T16:31:11.220Z,100957.52
2023-05-16T16:33:38.396Z,100960.33
2023-05-16T16:36:06.113Z,100963.55
2023-05-16T16:38:33.269Z,100966.40
2023-05-16T16:41:00.705Z,100963.18
2023-05-16T16:43:27.987Z,100959.10
2023-05-16T16:45:57.681Z,100959.92
2023-05-16T16:48:25.203Z,100962.12
2023-05-16T16:50:52.679Z,100962.02
2023-05-16T16:53:19.806Z,100963.67
2023-05-16T16:55:47.139Z,100961.52
2023-05-16T16:58:14.265Z,100966.66
2023-05-16T17:00:41.576Z,100966.21
2023-05-16T17:03:09.955Z,100967.92
2023-05-16T17:05:37.200Z,100971.70
2023-05-16T17:08:04.782Z,100975.08
2023-05-16T17:10:44.279Z,100973.98
2023-05-16T17:13:14.408Z,100976.83
2023-05-16T17:15:44.250Z,100975.77
2023-05-16T17:18:11.476Z,100981.28
2023-05-16T17:20:38.737Z,100982.57
2023-05-16T17:23:05.863Z,100982.96
2023-05-16T17:25:33.043Z,100988.83
2023-05-16T17:28:00.217Z,100990.65
2023-05-16T17:30:27.654Z,100991.61
2023-05-16T17:32:55.179Z,100985.33
2023-05-16T17:35:22.587Z,100985.27
2023-05-16T17:37:50.828Z,100983.40
2023-05-16T17:40:18.165Z,100983.26
2023-05-16T17:42:45.675Z,100987.52
2023-05-16T17:45:13.244Z,100989.60
2023-05-16T17:47:40.478Z,100992.97
2023-05-16T17:50:09.928Z,101000.33
2023-05-16T17:52:38.277Z,101005.00
2023-05-16T17:55:06.032Z,101007.04
2023-05-16T17:57:34.501Z,101008.67
2023-05-16T18:00:02.036Z,101009.27
2023-05-16T18:02:32.644Z,101006.91
2023-05-16T18:05:00.054Z,101011.02
2023-05-16T18:07:27.462Z,101013.57
2023-05-16T18:09:54.694Z,101014.95
2023-05-16T18:12:22.313Z,101014.11
2023-05-16T18:14:49.616Z,101014.08
2023-05-16T18:17:16.749Z,101011.06
2023-05-16T18:19:45.568Z,101008.85
2023-05-16T18:22:15.650Z,101009.62
2023-05-16T18:51:17.244Z,101020.20
2023-05-16T18:58:16.086Z,101023.81
2023-05-16T19:05:15.118Z,101031.54
2023-05-16T19:08:59.286Z,101031.36
2023-05-16T19:44:45.377Z,101025.86
2023-05-16T19:51:08.160Z,101020.75
2023-05-16T19:53:36.993Z,101019.12
2023-05-16T19:56:12.373Z,101023.30
2023-05-16T19:58:39.857Z,101024.38
2023-05-16T20:01:09.908Z,101022.30
2023-05-16T20:03:37.455Z,101021.02
2023-05-16T20:06:08.109Z,101016.89
2023-05-16T20:08:36.178Z,101014.85
2023-05-16T20:11:03.912Z,101015.58
2023-05-16T20:13:32.494Z,101013.73
2023-05-16T20:16:07.427Z,101011.77
2023-05-16T20:18:34.815Z,101010.56
2023-05-16T20:21:02.465Z,101013.05
2023-05-16T20:23:32.088Z,101009.30
2023-05-16T20:26:03.167Z,101015.27
2023-05-16T20:28:31.067Z,101015.89
2023-05-16T20:30:58.569Z,101008.94
2023-05-16T20:33:26.085Z,101009.38
2023-05-16T20:35:53.448Z,101007.77
2023-05-16T20:38:20.650Z,101009.70
2023-05-16T20:40:47.904Z,101007.77
2023-05-16T20:43:15.197Z,101010.23
2023-05-16T20:45:42.664Z,101013.56
2023-05-16T20:48:09.882Z,101010.35
2023-05-16T20:50:39.222Z,101007.09
2023-05-16T20:53:07.355Z,101006.19
2023-05-16T20:55:34.643Z,101005.35
2023-05-16T21:01:27.178Z,101000.36
2023-05-16T21:08:10.168Z,101012.58
2023-05-16T21:17:41.138Z,101008.09
2023-05-16T21:20:08.892Z,101006.77
2023-05-16T21:22:37.195Z,101005.77
2023-05-16T21:25:04.902Z,101002.38
2023-05-16T21:27:33.357Z,101001.58
2023-05-16T21:30:00.749Z,100997.89
2023-05-16T21:32:35.334Z,100999.45
2023-05-16T21:35:04.521Z,100997.30
2023-05-16T21:37:31.813Z,100996.37
2023-05-16T21:39:59.023Z,100995.28
2023-05-16T21:42:26.211Z,100995.30
2023-05-16T21:44:53.403Z,100994.67
2023-05-16T21:47:21.173Z,100995.92
2023-05-16T21:49:48.444Z,100992.95
2023-05-16T21:52:15.636Z,100988.20
2023-05-16T21:54:43.283Z,100987.78
2023-05-16T21:57:11.367Z,100988.91
2023-05-16T21:59:38.439Z,100991.73
2023-05-16T22:02:05.565Z,100986.23
2023-05-16T22:04:32.870Z,100988.88
2023-05-16T22:07:00.141Z,100981.44
2023-05-16T22:09:27.452Z,100982.59
2023-05-16T22:11:54.645Z,100982.31
2023-05-16T22:14:21.824Z,100983.17
2023-05-16T22:16:49.167Z,100982.59
2023-05-16T22:19:16.532Z,100981.59
2023-05-16T22:21:43.737Z,100982.67
2023-05-16T22:24:12.135Z,100987.30
2023-05-16T22:26:39.539Z,100983.05
2023-05-16T22:29:06.833Z,100982.88
2023-05-16T22:31:34.227Z,100980.70
2023-05-16T22:34:02.173Z,100983.25
2023-05-16T22:36:29.483Z,100985.06
2023-05-16T22:38:56.723Z,100985.04
2023-05-16T22:41:24.024Z,100980.61
2023-05-16T22:43:51.078Z,100981.23
2023-05-16T22:46:18.353Z,100983.42
2023-05-16T22:48:45.591Z,100984.44
2023-05-16T22:51:12.819Z,100983.22
2023-05-16T22:53:40.780Z,100984.20
2023-05-16T22:56:11.033Z,100987.30
2023-05-16T22:58:38.387Z,100989.50
2023-05-16T23:01:05.860Z,100993.20
2023-05-16T23:03:34.571Z,100989.06
2023-05-16T23:06:02.272Z,100991.27
2023-05-16T23:08:29.647Z,100993.81
2023-05-16T23:10:58.399Z,100994.80
2023-05-16T23:13:25.581Z,100995.90
2023-05-16T23:15:52.754Z,100998.95
2023-05-16T23:18:20.135Z,100997.01
2023-05-16T23:20:47.436Z,100998.39
2023-05-16T23:23:14.930Z,101000.85
2023-05-16T23:25:42.322Z,100998.25
2023-05-16T23:28:10.534Z,101001.80
2023-05-16T23:30:38.144Z,101004.77
2023-05-16T23:33:05.449Z,101004.82
2023-05-16T23:35:32.817Z,101003.98
2023-05-16T23:38:02.959Z,100997.58
2023-05-16T23:40:30.069Z,100996.21
2023-05-16T23:42:57.221Z,100990.80
2023-05-16T23:45:24.356Z,100992.56
2023-05-16T23:47:51.638Z,100995.13
2023-05-16T23:50:21.526Z,100994.74
2023-05-16T23:52:48.855Z,100993.95
2023-05-16T23:55:16.762Z,100996.96
2023-05-16T23:57:43.977Z,101001.27
